createdAt,value
2023-03-29T00:00:03.270Z,4.47
2023-03-29T00:00:13.736Z,4.47
2023-03-29T00:00:24.256Z,4.47
2023-03-29T00:00:34.752Z,4.45
2023-03-29T00:00:45.251Z,4.45
2023-03-29T00:00:55.751Z,4.47
2023-03-29T00:01:06.266Z,4.45
2023-03-29T00:01:34.892Z,4.44
2023-03-29T00:01:35.013Z,4.44
2023-03-29T00:01:38.777Z,4.42
2023-03-29T00:01:48.293Z,4.45
2023-03-29T00:01:58.864Z,4.44
2023-03-29T00:02:09.347Z,4.45
2023-03-29T00:02:19.952Z,4.42
2023-03-29T00:02:30.665Z,4.42
2023-03-29T00:02:40.860Z,4.44
2023-03-29T00:02:51.387Z,4.44
2023-03-29T00:03:01.935Z,4.41
2023-03-29T00:03:12.422Z,4.42
2023-03-29T00:03:22.988Z,4.42
2023-03-29T00:03:33.436Z,4.44
2023-03-29T00:03:43.977Z,4.42
2023-03-29T00:03:54.455Z,4.42
2023-03-29T00:04:05.011Z,4.41
2023-03-29T00:04:15.445Z,4.42
2023-03-29T00:04:25.949Z,4.41
2023-03-29T00:04:36.474Z,4.42
2023-03-29T00:04:46.981Z,4.41
2023-03-29T00:04:57.417Z,4.41
2023-03-29T00:05:07.930Z,4.40
2023-03-29T00:05:18.440Z,4.40
2023-03-29T00:05:28.962Z,4.40
2023-03-29T00:05:39.452Z,4.36
2023-03-29T00:05:49.958Z,4.40
2023-03-29T00:06:00.469Z,4.37
2023-03-29T00:06:10.972Z,4.40
2023-03-29T00:06:21.473Z,4.40
2023-03-29T00:06:31.977Z,4.37
2023-03-29T00:06:42.494Z,4.37
2023-03-29T00:06:53.003Z,4.40
2023-03-29T00:07:03.497Z,4.40
2023-03-29T00:07:14.010Z,4.40
2023-03-29T00:07:24.509Z,4.40
2023-03-29T00:07:35.021Z,4.37
2023-03-29T00:07:45.531Z,4.40
2023-03-29T00:07:56.037Z,4.37
2023-03-29T00:08:06.542Z,4.37
2023-03-29T00:08:17.041Z,4.37
2023-03-29T00:08:27.549Z,4.36
2023-03-29T00:08:38.101Z,4.37
2023-03-29T00:08:48.558Z,4.36
2023-03-29T00:08:59.070Z,4.36
2023-03-29T00:09:09.597Z,4.36
2023-03-29T00:09:20.089Z,4.37
2023-03-29T00:09:30.582Z,4.36
2023-03-29T00:09:41.125Z,4.37
2023-03-29T00:09:51.593Z,4.36
2023-03-29T00:10:02.110Z,4.36
2023-03-29T00:10:12.607Z,4.36
2023-03-29T00:10:23.126Z,4.34
2023-03-29T00:10:33.669Z,4.36
2023-03-29T00:10:44.126Z,4.40
2023-03-29T00:10:54.632Z,4.37
2023-03-29T00:11:05.275Z,4.36
2023-03-29T00:11:15.638Z,4.36
2023-03-29T00:11:26.144Z,4.36
2023-03-29T00:11:36.646Z,4.36
2023-03-29T00:11:47.162Z,4.37
2023-03-29T00:11:57.656Z,4.37
2023-03-29T00:12:08.170Z,4.40
2023-03-29T00:12:18.680Z,4.37
2023-03-29T00:12:29.202Z,4.37
2023-03-29T00:12:39.682Z,4.36
2023-03-29T00:12:50.192Z,4.37
2023-03-29T00:13:00.694Z,4.37
2023-03-29T00:13:11.234Z,4.37
2023-03-29T00:13:21.705Z,4.37
2023-03-29T00:13:32.215Z,4.37
2023-03-29T00:13:42.727Z,4.37
2023-03-29T00:13:53.223Z,4.37
2023-03-29T00:14:03.753Z,4.37
2023-03-29T00:14:14.245Z,4.40
2023-03-29T00:14:24.747Z,4.40
2023-03-29T00:14:35.255Z,4.41
2023-03-29T00:14:45.767Z,4.41
2023-03-29T00:14:56.307Z,4.40
2023-03-29T00:15:06.782Z,4.41
2023-03-29T00:15:17.289Z,4.37
2023-03-29T00:15:27.786Z,4.40
2023-03-29T00:15:38.335Z,4.37
2023-03-29T00:15:48.809Z,4.37
2023-03-29T00:15:59.315Z,4.37
2023-03-29T00:16:09.825Z,4.37
2023-03-29T00:16:20.347Z,4.37
2023-03-29T00:16:30.862Z,4.36
2023-03-29T00:16:41.412Z,4.36
2023-03-29T00:16:51.989Z,4.34
2023-03-29T00:17:02.393Z,4.34
2023-03-29T00:17:12.981Z,4.34
2023-03-29T00:17:23.407Z,4.36
2023-03-29T00:17:33.923Z,4.34
2023-03-29T00:17:44.430Z,4.33
2023-03-29T00:17:54.963Z,4.34
2023-03-29T00:18:05.436Z,4.33
2023-03-29T00:18:15.913Z,4.34
2023-03-29T00:18:26.421Z,4.34
2023-03-29T00:18:36.930Z,4.36
2023-03-29T00:18:47.446Z,4.34
2023-03-29T00:18:57.943Z,4.34
2023-03-29T00:19:08.452Z,4.34
2023-03-29T00:19:18.979Z,4.34
2023-03-29T00:19:29.472Z,4.34
2023-03-29T00:19:39.999Z,4.34
2023-03-29T00:19:50.501Z,4.33
2023-03-29T00:20:00.996Z,4.34
2023-03-29T00:20:11.502Z,4.36
2023-03-29T00:20:22.013Z,4.36
2023-03-29T00:20:32.517Z,4.34
2023-03-29T00:20:43.019Z,4.33
2023-03-29T00:20:53.526Z,4.33
2023-03-29T00:21:04.480Z,4.34
2023-03-29T00:21:14.537Z,4.34
2023-03-29T00:21:25.046Z,4.33
2023-03-29T00:21:35.557Z,4.36
2023-03-29T00:21:46.064Z,4.33
2023-03-29T00:21:56.578Z,4.33
2023-03-29T00:22:07.069Z,4.33
2023-03-29T00:22:17.571Z,4.33
2023-03-29T00:22:28.080Z,4.34
2023-03-29T00:22:38.583Z,4.34
2023-03-29T00:22:49.092Z,4.34
2023-03-29T00:22:59.596Z,4.36
2023-03-29T00:23:10.106Z,4.34
2023-03-29T00:23:20.614Z,4.33
2023-03-29T00:23:31.124Z,4.34
2023-03-29T00:23:41.622Z,4.34
2023-03-29T00:23:52.129Z,4.34
2023-03-29T00:24:02.635Z,4.33
2023-03-29T00:24:13.139Z,4.34
2023-03-29T00:24:23.653Z,4.33
2023-03-29T00:24:34.159Z,4.36
2023-03-29T00:24:44.661Z,4.34
2023-03-29T00:24:55.178Z,4.34
2023-03-29T00:25:05.667Z,4.33
2023-03-29T00:25:16.178Z,4.33
2023-03-29T00:25:26.685Z,4.32
2023-03-29T00:25:37.197Z,4.34
2023-03-29T00:25:47.698Z,4.33
2023-03-29T00:25:58.199Z,4.30
2023-03-29T00:26:08.714Z,4.32
2023-03-29T00:26:19.218Z,4.32
2023-03-29T00:26:29.726Z,4.30
2023-03-29T00:26:40.230Z,4.29
2023-03-29T00:26:50.732Z,4.30
2023-03-29T00:27:01.265Z,4.30
2023-03-29T00:27:11.740Z,4.30
2023-03-29T00:27:22.254Z,4.29
2023-03-29T00:27:32.750Z,4.30
2023-03-29T00:27:43.259Z,4.30
2023-03-29T00:27:53.768Z,4.30
2023-03-29T00:28:04.268Z,4.29
2023-03-29T00:28:14.787Z,4.29
2023-03-29T00:28:25.286Z,4.30
2023-03-29T00:28:35.791Z,4.30
2023-03-29T00:28:46.291Z,4.29
2023-03-29T00:28:56.808Z,4.27
2023-03-29T00:29:07.317Z,4.29
2023-03-29T00:29:17.835Z,4.29
2023-03-29T00:29:28.336Z,4.30
2023-03-29T00:29:38.829Z,4.29
2023-03-29T00:29:49.345Z,4.30
2023-03-29T00:29:59.870Z,4.30
2023-03-29T00:30:10.386Z,4.30
2023-03-29T00:30:20.861Z,4.27
2023-03-29T00:30:31.367Z,4.32
2023-03-29T00:30:41.885Z,4.30
2023-03-29T00:30:52.382Z,4.30
2023-03-29T00:31:03.068Z,4.30
2023-03-29T00:31:13.415Z,4.30
2023-03-29T00:31:23.950Z,4.29
2023-03-29T00:31:34.466Z,4.29
2023-03-29T00:31:44.970Z,4.29
2023-03-29T00:31:55.465Z,4.30
2023-03-29T00:32:05.942Z,4.30
2023-03-29T00:32:16.466Z,4.30
2023-03-29T00:32:26.980Z,4.27
2023-03-29T00:32:37.488Z,4.30
2023-03-29T00:32:48.063Z,4.29
2023-03-29T00:32:58.511Z,4.29
2023-03-29T00:33:09.020Z,4.29
2023-03-29T00:33:19.500Z,4.29
2023-03-29T00:33:30.010Z,4.30
2023-03-29T00:33:40.528Z,4.30
2023-03-29T00:33:51.021Z,4.30
2023-03-29T00:34:01.530Z,4.30
2023-03-29T00:34:12.034Z,4.27
2023-03-29T00:34:22.550Z,4.29
2023-03-29T00:34:33.077Z,4.29
2023-03-29T00:34:43.563Z,4.29
2023-03-29T00:34:54.069Z,4.27
2023-03-29T00:35:04.589Z,4.29
2023-03-29T00:35:15.086Z,4.29
2023-03-29T00:35:25.627Z,4.29
2023-03-29T00:35:36.121Z,4.29
2023-03-29T00:35:46.665Z,4.27
2023-03-29T00:35:57.228Z,4.29
2023-03-29T00:36:07.672Z,4.29
2023-03-29T00:36:18.145Z,4.27
2023-03-29T00:36:28.640Z,4.27
2023-03-29T00:36:39.138Z,4.29
2023-03-29T00:36:49.637Z,4.27
2023-03-29T00:37:00.138Z,4.29
2023-03-29T00:37:10.670Z,4.29
2023-03-29T00:37:21.146Z,4.27
2023-03-29T00:37:31.645Z,4.30
2023-03-29T00:37:42.155Z,4.27
2023-03-29T00:37:52.671Z,4.27
2023-03-29T00:38:03.169Z,4.29
2023-03-29T00:38:13.678Z,4.27
2023-03-29T00:38:24.181Z,4.26
2023-03-29T00:38:34.698Z,4.27
2023-03-29T00:38:45.199Z,4.26
2023-03-29T00:38:55.699Z,4.26
2023-03-29T00:39:06.200Z,4.27
2023-03-29T00:39:16.705Z,4.26
2023-03-29T00:39:27.224Z,4.26
2023-03-29T00:39:37.729Z,4.26
2023-03-29T00:39:48.278Z,4.26
2023-03-29T00:39:58.737Z,4.24
2023-03-29T00:40:09.257Z,4.23
2023-03-29T00:40:19.743Z,4.23
2023-03-29T00:40:30.258Z,4.23
2023-03-29T00:40:40.757Z,4.24
2023-03-29T00:40:51.270Z,4.24
2023-03-29T00:41:02.006Z,4.22
2023-03-29T00:41:12.273Z,4.22
2023-03-29T00:41:22.786Z,4.23
2023-03-29T00:41:33.303Z,4.24
2023-03-29T00:41:43.803Z,4.23
2023-03-29T00:41:54.301Z,4.23
2023-03-29T00:42:04.797Z,4.22
2023-03-29T00:42:15.330Z,4.24
2023-03-29T00:42:25.817Z,4.23
2023-03-29T00:42:36.314Z,4.23
2023-03-29T00:42:46.834Z,4.23
2023-03-29T00:42:57.332Z,4.23
2023-03-29T00:43:07.865Z,4.22
2023-03-29T00:43:18.351Z,4.23
2023-03-29T00:43:28.848Z,4.22
2023-03-29T00:43:39.360Z,4.22
2023-03-29T00:43:49.855Z,4.20
2023-03-29T00:44:00.369Z,4.22
2023-03-29T00:44:10.865Z,4.20
2023-03-29T00:44:21.369Z,4.22
2023-03-29T00:44:31.870Z,4.20
2023-03-29T00:44:42.462Z,4.22
2023-03-29T00:44:52.881Z,4.20
2023-03-29T00:45:03.422Z,4.20
2023-03-29T00:45:13.905Z,4.20
2023-03-29T00:45:24.401Z,4.22
2023-03-29T00:45:34.900Z,4.22
2023-03-29T00:45:45.410Z,4.20
2023-03-29T00:45:55.998Z,4.22
2023-03-29T00:46:06.436Z,4.22
2023-03-29T00:46:16.935Z,4.22
2023-03-29T00:46:27.487Z,4.20
2023-03-29T00:46:37.968Z,4.20
2023-03-29T00:46:48.506Z,4.23
2023-03-29T00:46:58.947Z,4.22
2023-03-29T00:47:09.456Z,4.22
2023-03-29T00:47:19.962Z,4.18
2023-03-29T00:47:30.480Z,4.20
2023-03-29T00:47:41.016Z,4.20
2023-03-29T00:47:51.557Z,4.18
2023-03-29T00:48:02.006Z,4.22
2023-03-29T00:48:12.560Z,4.22
2023-03-29T00:48:22.985Z,4.22
2023-03-29T00:48:33.485Z,4.22
2023-03-29T00:48:43.989Z,4.22
2023-03-29T00:48:54.497Z,4.22
2023-03-29T00:49:05.024Z,4.20
2023-03-29T00:49:15.525Z,4.20
2023-03-29T00:49:26.012Z,4.20
2023-03-29T00:49:36.515Z,4.22
2023-03-29T00:49:47.037Z,4.22
2023-03-29T00:49:57.531Z,4.20
2023-03-29T00:50:08.028Z,4.22
2023-03-29T00:50:18.542Z,4.22
2023-03-29T00:50:29.041Z,4.22
2023-03-29T00:50:39.550Z,4.22
2023-03-29T00:50:50.065Z,4.22
2023-03-29T00:51:00.758Z,4.22
2023-03-29T00:51:11.060Z,4.22
2023-03-29T00:51:21.576Z,4.20
2023-03-29T00:51:32.082Z,4.20
2023-03-29T00:51:42.593Z,4.20
2023-03-29T00:51:53.083Z,4.22
2023-03-29T00:52:03.629Z,4.24
2023-03-29T00:52:14.109Z,4.23
2023-03-29T00:52:24.602Z,4.24
2023-03-29T00:52:35.140Z,4.23
2023-03-29T00:52:45.614Z,4.22
2023-03-29T00:52:56.120Z,4.23
2023-03-29T00:53:06.630Z,4.24
2023-03-29T00:53:17.153Z,4.22
2023-03-29T00:53:27.640Z,4.23
2023-03-29T00:53:38.144Z,4.22
2023-03-29T00:53:48.697Z,4.23
2023-03-29T00:53:59.156Z,4.22
2023-03-29T00:54:09.663Z,4.23
2023-03-29T00:54:20.162Z,4.23
2023-03-29T00:54:30.678Z,4.23
2023-03-29T00:54:41.190Z,4.23
2023-03-29T00:54:51.683Z,4.24
2023-03-29T00:55:02.191Z,4.23
2023-03-29T00:55:12.694Z,4.23
2023-03-29T00:55:23.213Z,4.24
2023-03-29T00:55:33.717Z,4.24
2023-03-29T00:55:44.252Z,4.23
2023-03-29T00:55:54.730Z,4.23
2023-03-29T00:56:05.277Z,4.24
2023-03-29T00:56:15.747Z,4.24
2023-03-29T00:56:26.269Z,4.24
2023-03-29T00:56:36.922Z,4.26
2023-03-29T00:56:47.319Z,4.26
2023-03-29T00:56:57.793Z,4.24
2023-03-29T00:57:08.335Z,4.26
2023-03-29T00:57:18.822Z,4.26
2023-03-29T00:57:29.323Z,4.27
2023-03-29T00:57:39.831Z,4.26
2023-03-29T00:57:50.301Z,4.27
2023-03-29T00:58:00.843Z,4.24
2023-03-29T00:58:11.340Z,4.26
2023-03-29T00:58:21.821Z,4.27
2023-03-29T00:58:32.331Z,4.27
2023-03-29T00:58:42.833Z,4.26
2023-03-29T00:58:53.344Z,4.26
2023-03-29T00:59:03.868Z,4.26
2023-03-29T00:59:14.361Z,4.26
2023-03-29T00:59:24.867Z,4.26
2023-03-29T00:59:35.373Z,4.26
2023-03-29T00:59:45.877Z,4.24
2023-03-29T00:59:56.385Z,4.24
2023-03-29T01:00:06.925Z,4.26
2023-03-29T01:00:17.419Z,4.26
2023-03-29T01:00:27.921Z,4.26
2023-03-29T01:00:38.404Z,4.24
2023-03-29T01:00:48.918Z,4.23
2023-03-29T01:00:59.606Z,4.26
2023-03-29T01:01:09.926Z,4.24
2023-03-29T01:01:20.521Z,4.27
2023-03-29T01:01:30.984Z,4.24
2023-03-29T01:01:41.480Z,4.26
2023-03-29T01:01:51.996Z,4.24
2023-03-29T01:02:02.581Z,4.24
2023-03-29T01:02:12.980Z,4.23
2023-03-29T01:02:23.488Z,4.23
2023-03-29T01:02:34.179Z,4.23
2023-03-29T01:02:44.563Z,4.24
2023-03-29T01:02:55.152Z,4.23
2023-03-29T01:03:05.613Z,4.23
2023-03-29T01:03:16.088Z,4.24
2023-03-29T01:03:26.624Z,4.24
2023-03-29T01:03:37.113Z,4.23
2023-03-29T01:03:47.632Z,4.24
2023-03-29T01:03:58.066Z,4.24
2023-03-29T01:04:08.639Z,4.23
2023-03-29T01:04:19.089Z,4.23
2023-03-29T01:04:29.687Z,4.24
2023-03-29T01:04:40.069Z,4.22
2023-03-29T01:04:50.571Z,4.22
2023-03-29T01:05:01.068Z,4.22
2023-03-29T01:05:11.580Z,4.20
2023-03-29T01:05:22.083Z,4.22
2023-03-29T01:05:32.588Z,4.20
2023-03-29T01:05:43.092Z,4.22
2023-03-29T01:05:53.592Z,4.20
2023-03-29T01:06:04.112Z,4.20
2023-03-29T01:06:14.611Z,4.20
2023-03-29T01:06:25.159Z,4.22
2023-03-29T01:06:35.722Z,4.20
2023-03-29T01:06:46.171Z,4.22
2023-03-29T01:06:56.672Z,4.22
2023-03-29T01:07:07.279Z,4.22
2023-03-29T01:07:17.678Z,4.20
2023-03-29T01:07:28.145Z,4.20
2023-03-29T01:07:38.643Z,4.20
2023-03-29T01:07:49.150Z,4.20
2023-03-29T01:07:59.652Z,4.23
2023-03-29T01:08:10.174Z,4.22
2023-03-29T01:08:20.669Z,4.22
2023-03-29T01:08:31.176Z,4.22
2023-03-29T01:08:41.707Z,4.20
2023-03-29T01:08:52.196Z,4.23
2023-03-29T01:09:02.693Z,4.22
2023-03-29T01:09:13.197Z,4.22
2023-03-29T01:09:23.736Z,4.22
2023-03-29T01:09:34.235Z,4.23
2023-03-29T01:09:44.715Z,4.23
2023-03-29T01:09:55.224Z,4.20
2023-03-29T01:10:05.730Z,4.22
2023-03-29T01:10:16.248Z,4.22
2023-03-29T01:10:26.736Z,4.22
2023-03-29T01:10:37.257Z,4.22
2023-03-29T01:10:47.749Z,4.23
2023-03-29T01:10:58.270Z,4.22
2023-03-29T01:11:08.781Z,4.23
2023-03-29T01:11:19.274Z,4.20
2023-03-29T01:11:29.782Z,4.23
2023-03-29T01:11:40.317Z,4.20
2023-03-29T01:11:50.800Z,4.22
2023-03-29T01:12:01.301Z,4.20
2023-03-29T01:12:11.806Z,4.20
2023-03-29T01:12:22.313Z,4.18
2023-03-29T01:12:32.837Z,4.18
2023-03-29T01:12:43.320Z,4.18
2023-03-29T01:12:53.825Z,4.20
2023-03-29T01:13:04.334Z,4.18
2023-03-29T01:13:14.862Z,4.18
2023-03-29T01:13:25.343Z,4.18
2023-03-29T01:13:35.845Z,4.20
2023-03-29T01:13:46.365Z,4.16
2023-03-29T01:13:56.857Z,4.16
2023-03-29T01:14:07.380Z,4.18
2023-03-29T01:14:17.897Z,4.16
2023-03-29T01:14:28.371Z,4.18
2023-03-29T01:14:38.880Z,4.16
2023-03-29T01:14:49.383Z,4.20
2023-03-29T01:14:59.889Z,4.16
2023-03-29T01:15:10.418Z,4.16
2023-03-29T01:15:20.902Z,4.16
2023-03-29T01:15:31.410Z,4.16
2023-03-29T01:15:41.934Z,4.15
2023-03-29T01:15:52.418Z,4.15
2023-03-29T01:16:02.985Z,4.14
2023-03-29T01:16:13.483Z,4.15
2023-03-29T01:16:23.952Z,4.16
2023-03-29T01:16:34.456Z,4.18
2023-03-29T01:16:45.011Z,4.15
2023-03-29T01:16:55.493Z,4.14
2023-03-29T01:17:05.948Z,4.14
2023-03-29T01:17:16.457Z,4.12
2023-03-29T01:17:26.982Z,4.12
2023-03-29T01:17:37.540Z,4.14
2023-03-29T01:17:48.027Z,4.12
2023-03-29T01:17:58.698Z,4.11
2023-03-29T01:18:09.040Z,4.11
2023-03-29T01:18:19.490Z,4.11
2023-03-29T01:18:29.991Z,4.08
2023-03-29T01:18:40.503Z,4.09
2023-03-29T01:18:50.991Z,4.08
2023-03-29T01:19:01.497Z,4.09
2023-03-29T01:19:12.002Z,4.09
2023-03-29T01:19:22.505Z,4.08
2023-03-29T01:19:33.016Z,4.08
2023-03-29T01:19:43.525Z,4.06
2023-03-29T01:19:54.019Z,4.06
2023-03-29T01:20:04.554Z,4.06
2023-03-29T01:20:15.034Z,4.06
2023-03-29T01:20:25.544Z,4.05
2023-03-29T01:20:36.042Z,4.04
2023-03-29T01:20:46.584Z,4.04
2023-03-29T01:20:57.067Z,4.02
2023-03-29T01:21:07.563Z,4.02
2023-03-29T01:21:18.058Z,4.02
2023-03-29T01:21:28.570Z,4.02
2023-03-29T01:21:39.069Z,3.98
2023-03-29T01:21:49.576Z,3.98
2023-03-29T01:22:00.109Z,4.00
2023-03-29T01:22:10.595Z,4.00
2023-03-29T01:22:21.087Z,4.00
2023-03-29T01:22:31.610Z,4.00
2023-03-29T01:22:42.109Z,4.00
2023-03-29T01:22:52.611Z,3.98
2023-03-29T01:23:03.114Z,3.98
2023-03-29T01:23:13.633Z,3.98
2023-03-29T01:23:24.123Z,3.98
2023-03-29T01:23:34.629Z,3.98
2023-03-29T01:23:45.144Z,3.98
2023-03-29T01:23:55.648Z,4.00
2023-03-29T01:24:06.146Z,3.97
2023-03-29T01:24:16.652Z,3.97
2023-03-29T01:24:27.175Z,3.97
2023-03-29T01:24:37.669Z,3.97
2023-03-29T01:24:48.184Z,3.97
2023-03-29T01:24:58.672Z,3.98
2023-03-29T01:25:09.173Z,3.96
2023-03-29T01:25:19.718Z,3.94
2023-03-29T01:25:30.185Z,3.96
2023-03-29T01:25:40.690Z,3.97
2023-03-29T01:25:51.237Z,3.96
2023-03-29T01:26:01.713Z,3.94
2023-03-29T01:26:12.197Z,3.93
2023-03-29T01:26:22.711Z,3.94
2023-03-29T01:26:33.220Z,3.96
2023-03-29T01:26:43.710Z,3.96
2023-03-29T01:26:54.213Z,3.96
2023-03-29T01:27:04.721Z,3.94
2023-03-29T01:27:15.219Z,3.93
2023-03-29T01:27:25.735Z,3.93
2023-03-29T01:27:36.253Z,3.93
2023-03-29T01:27:46.745Z,3.93
2023-03-29T01:27:57.261Z,3.91
2023-03-29T01:28:07.751Z,3.91
2023-03-29T01:28:18.245Z,3.91
2023-03-29T01:28:28.757Z,3.90
2023-03-29T01:28:39.262Z,3.90
2023-03-29T01:28:49.765Z,3.90
2023-03-29T01:29:00.271Z,3.90
2023-03-29T01:29:10.775Z,3.90
2023-03-29T01:29:21.282Z,3.90
2023-03-29T01:29:31.783Z,3.90
2023-03-29T01:29:42.290Z,3.88
2023-03-29T01:29:52.815Z,3.87
2023-03-29T01:30:03.304Z,3.88
2023-03-29T01:30:13.879Z,3.88
2023-03-29T01:30:24.304Z,3.88
2023-03-29T01:30:34.803Z,3.90
2023-03-29T01:30:45.318Z,3.87
2023-03-29T01:30:55.816Z,3.87
2023-03-29T01:31:06.323Z,3.87
2023-03-29T01:31:16.859Z,3.88
2023-03-29T01:31:27.370Z,3.90
2023-03-29T01:31:37.899Z,3.88
2023-03-29T01:31:48.386Z,3.87
2023-03-29T01:31:58.843Z,3.87
2023-03-29T01:32:09.441Z,3.86
2023-03-29T01:32:19.847Z,3.87
2023-03-29T01:32:30.405Z,3.88
2023-03-29T01:32:40.919Z,3.87
2023-03-29T01:32:51.377Z,3.87
2023-03-29T01:33:01.924Z,3.87
2023-03-29T01:33:12.375Z,3.87
2023-03-29T01:33:22.884Z,3.87
2023-03-29T01:33:33.381Z,3.88
2023-03-29T01:33:43.894Z,3.87
2023-03-29T01:33:54.392Z,3.87
2023-03-29T01:34:04.904Z,3.87
2023-03-29T01:34:15.410Z,3.86
2023-03-29T01:34:25.927Z,3.87
2023-03-29T01:34:36.436Z,3.88
2023-03-29T01:34:46.938Z,3.87
2023-03-29T01:34:57.435Z,3.88
2023-03-29T01:35:07.942Z,3.87
2023-03-29T01:35:18.483Z,3.86
2023-03-29T01:35:28.954Z,3.87
2023-03-29T01:35:39.483Z,3.87
2023-03-29T01:35:49.979Z,3.84
2023-03-29T01:36:00.501Z,3.87
2023-03-29T01:36:11.016Z,3.87
2023-03-29T01:36:21.491Z,3.86
2023-03-29T01:36:32.002Z,3.86
2023-03-29T01:36:42.511Z,3.87
2023-03-29T01:36:52.990Z,3.87
2023-03-29T01:37:03.581Z,3.86
2023-03-29T01:37:14.037Z,3.86
2023-03-29T01:37:24.526Z,3.86
2023-03-29T01:37:35.018Z,3.86
2023-03-29T01:37:45.521Z,3.83
2023-03-29T01:37:56.031Z,3.86
2023-03-29T01:38:06.542Z,3.86
2023-03-29T01:38:17.047Z,3.84
2023-03-29T01:38:27.552Z,3.84
2023-03-29T01:38:38.056Z,3.86
2023-03-29T01:38:48.564Z,3.84
2023-03-29T01:38:59.074Z,3.84
2023-03-29T01:39:09.584Z,3.86
2023-03-29T01:39:20.084Z,3.86
2023-03-29T01:39:30.589Z,3.84
2023-03-29T01:39:41.096Z,3.84
2023-03-29T01:39:51.596Z,3.86
2023-03-29T01:40:02.110Z,3.84
2023-03-29T01:40:12.618Z,3.87
2023-03-29T01:40:23.122Z,3.86
2023-03-29T01:40:33.631Z,3.87
2023-03-29T01:40:44.131Z,3.86
2023-03-29T01:40:54.634Z,3.87
2023-03-29T01:41:05.180Z,3.88
2023-03-29T01:41:15.657Z,3.88
2023-03-29T01:41:26.147Z,3.87
2023-03-29T01:41:36.653Z,3.86
2023-03-29T01:41:47.157Z,3.86
2023-03-29T01:41:57.673Z,3.87
2023-03-29T01:42:08.180Z,3.87
2023-03-29T01:42:18.702Z,3.87
2023-03-29T01:42:29.180Z,3.87
2023-03-29T01:42:39.683Z,3.87
2023-03-29T01:42:50.193Z,3.86
2023-03-29T01:43:00.699Z,3.84
2023-03-29T01:43:11.210Z,3.84
2023-03-29T01:43:21.715Z,3.84
2023-03-29T01:43:32.222Z,3.83
2023-03-29T01:43:42.724Z,3.84
2023-03-29T01:43:53.234Z,3.83
2023-03-29T01:44:03.727Z,3.83
2023-03-29T01:44:14.240Z,3.86
2023-03-29T01:44:24.751Z,3.84
2023-03-29T01:44:35.260Z,3.83
2023-03-29T01:44:45.782Z,3.84
2023-03-29T01:44:56.269Z,3.86
2023-03-29T01:45:06.777Z,3.84
2023-03-29T01:45:17.305Z,3.86
2023-03-29T01:45:27.785Z,3.84
2023-03-29T01:45:38.285Z,3.84
2023-03-29T01:45:48.855Z,3.86
2023-03-29T01:45:59.325Z,3.86
2023-03-29T01:46:09.816Z,3.86
2023-03-29T01:46:20.358Z,3.83
2023-03-29T01:46:30.843Z,3.84
2023-03-29T01:46:41.316Z,3.83
2023-03-29T01:46:51.840Z,3.83
2023-03-29T01:47:02.329Z,3.84
2023-03-29T01:47:12.829Z,3.83
2023-03-29T01:47:23.356Z,3.83
2023-03-29T01:47:33.892Z,3.86
2023-03-29T01:47:44.365Z,3.83
2023-03-29T01:47:54.857Z,3.83
2023-03-29T01:48:05.391Z,3.83
2023-03-29T01:48:15.846Z,3.83
2023-03-29T01:48:26.358Z,3.83
2023-03-29T01:48:36.869Z,3.83
2023-03-29T01:48:47.366Z,3.83
2023-03-29T01:48:57.871Z,3.84
2023-03-29T01:49:08.377Z,3.83
2023-03-29T01:49:18.877Z,3.80
2023-03-29T01:49:29.393Z,3.83
2023-03-29T01:49:39.891Z,3.80
2023-03-29T01:49:50.404Z,3.80
2023-03-29T01:50:00.922Z,3.83
2023-03-29T01:50:11.411Z,3.80
2023-03-29T01:50:21.912Z,3.83
2023-03-29T01:50:32.416Z,3.83
2023-03-29T01:50:42.924Z,3.83
2023-03-29T01:50:53.446Z,3.80
2023-03-29T01:51:04.281Z,3.83
2023-03-29T01:51:14.432Z,3.80
2023-03-29T01:51:24.934Z,3.84
2023-03-29T01:51:35.445Z,3.84
2023-03-29T01:51:45.963Z,3.83
2023-03-29T01:51:56.454Z,3.83
2023-03-29T01:52:06.962Z,3.83
2023-03-29T01:52:17.495Z,3.83
2023-03-29T01:52:27.970Z,3.83
2023-03-29T01:52:38.485Z,3.80
2023-03-29T01:52:48.990Z,3.83
2023-03-29T01:52:59.496Z,3.80
2023-03-29T01:53:10.004Z,3.84
2023-03-29T01:53:20.529Z,3.83
2023-03-29T01:53:31.013Z,3.80
2023-03-29T01:53:41.523Z,3.79
2023-03-29T01:53:52.032Z,3.80
2023-03-29T01:54:02.548Z,3.83
2023-03-29T01:54:13.047Z,3.80
2023-03-29T01:54:23.548Z,3.84
2023-03-29T01:54:34.052Z,3.80
2023-03-29T01:54:44.570Z,3.80
2023-03-29T01:54:55.065Z,3.80
2023-03-29T01:55:05.567Z,3.83
2023-03-29T01:55:16.085Z,3.80
2023-03-29T01:55:26.581Z,3.83
2023-03-29T01:55:37.086Z,3.83
2023-03-29T01:55:47.596Z,3.83
2023-03-29T01:55:58.098Z,3.80
2023-03-29T01:56:08.616Z,3.83
2023-03-29T01:56:19.117Z,3.83
2023-03-29T01:56:29.627Z,3.84
2023-03-29T01:56:40.157Z,3.84
2023-03-29T01:56:50.652Z,3.83
2023-03-29T01:57:01.157Z,3.83
2023-03-29T01:57:11.753Z,3.86
2023-03-29T01:57:22.259Z,3.83
2023-03-29T01:57:32.648Z,3.83
2023-03-29T01:57:43.159Z,3.83
2023-03-29T01:57:53.656Z,3.84
2023-03-29T01:58:04.160Z,3.80
2023-03-29T01:58:14.675Z,3.83
2023-03-29T01:58:25.181Z,3.79
2023-03-29T01:58:35.693Z,3.83
2023-03-29T01:58:46.190Z,3.83
2023-03-29T01:58:56.693Z,3.80
2023-03-29T01:59:07.244Z,3.80
2023-03-29T01:59:17.709Z,3.83
2023-03-29T01:59:28.246Z,3.80
2023-03-29T01:59:38.722Z,3.83
2023-03-29T01:59:49.227Z,3.80
2023-03-29T01:59:59.722Z,3.83
2023-03-29T02:00:10.242Z,3.79
2023-03-29T02:00:20.762Z,3.78
2023-03-29T02:00:31.248Z,3.79
2023-03-29T02:00:41.753Z,3.79
2023-03-29T02:00:52.256Z,3.78
2023-03-29T02:01:03.023Z,3.78
2023-03-29T02:01:13.281Z,3.78
2023-03-29T02:01:23.837Z,3.79
2023-03-29T02:01:34.302Z,3.76
2023-03-29T02:01:44.807Z,3.76
2023-03-29T02:01:55.361Z,3.76
2023-03-29T02:02:05.830Z,3.78
2023-03-29T02:02:16.318Z,3.76
2023-03-29T02:02:26.905Z,3.76
2023-03-29T02:02:37.441Z,3.78
2023-03-29T02:02:47.930Z,3.76
2023-03-29T02:02:58.419Z,3.76
2023-03-29T02:03:08.973Z,3.76
2023-03-29T02:03:19.418Z,3.75
2023-03-29T02:03:29.956Z,3.75
2023-03-29T02:03:40.394Z,3.76
2023-03-29T02:03:50.856Z,3.76
2023-03-29T02:04:01.346Z,3.76
2023-03-29T02:04:11.897Z,3.78
2023-03-29T02:04:22.349Z,3.76
2023-03-29T02:04:32.865Z,3.78
2023-03-29T02:04:43.366Z,3.76
2023-03-29T02:04:53.897Z,3.78
2023-03-29T02:05:04.396Z,3.76
2023-03-29T02:05:14.901Z,3.78
2023-03-29T02:05:25.395Z,3.79
2023-03-29T02:05:35.903Z,3.78
2023-03-29T02:05:46.402Z,3.78
2023-03-29T02:05:56.912Z,3.78
2023-03-29T02:06:07.416Z,3.79
2023-03-29T02:06:17.941Z,3.78
2023-03-29T02:06:28.453Z,3.78
2023-03-29T02:06:38.938Z,3.76
2023-03-29T02:06:49.446Z,3.78
2023-03-29T02:06:59.951Z,3.78
2023-03-29T02:07:10.456Z,3.78
2023-03-29T02:07:20.958Z,3.79
2023-03-29T02:07:31.460Z,3.78
2023-03-29T02:07:41.981Z,3.76
2023-03-29T02:07:52.481Z,3.79
2023-03-29T02:08:02.980Z,3.78
2023-03-29T02:08:13.485Z,3.79
2023-03-29T02:08:23.993Z,3.78
2023-03-29T02:08:34.500Z,3.79
2023-03-29T02:08:45.042Z,3.78
2023-03-29T02:08:55.515Z,3.79
2023-03-29T02:09:06.023Z,3.78
2023-03-29T02:09:16.560Z,3.79
2023-03-29T02:09:27.052Z,3.79
2023-03-29T02:09:37.538Z,3.78
2023-03-29T02:09:48.043Z,3.79
2023-03-29T02:09:58.547Z,3.79
2023-03-29T02:10:09.071Z,3.80
2023-03-29T02:10:19.561Z,3.80
2023-03-29T02:10:30.069Z,3.79
2023-03-29T02:10:40.575Z,3.80
2023-03-29T02:10:51.084Z,3.83
2023-03-29T02:11:01.885Z,3.80
2023-03-29T02:11:12.098Z,3.79
2023-03-29T02:11:22.600Z,3.79
2023-03-29T02:11:33.110Z,3.80
2023-03-29T02:11:43.616Z,3.83
2023-03-29T02:11:54.141Z,3.83
2023-03-29T02:12:04.627Z,3.80
2023-03-29T02:12:15.129Z,3.80
2023-03-29T02:12:25.635Z,3.83
2023-03-29T02:12:36.135Z,3.83
2023-03-29T02:12:46.643Z,3.84
2023-03-29T02:12:57.149Z,3.83
2023-03-29T02:13:07.669Z,3.83
2023-03-29T02:13:18.155Z,3.80
2023-03-29T02:13:28.690Z,3.84
2023-03-29T02:13:39.173Z,3.86
2023-03-29T02:13:49.670Z,3.84
2023-03-29T02:14:00.176Z,3.80
2023-03-29T02:14:10.683Z,3.83
2023-03-29T02:14:21.193Z,3.84
2023-03-29T02:14:31.696Z,3.84
2023-03-29T02:14:42.203Z,3.83
2023-03-29T02:14:52.715Z,3.84
2023-03-29T02:15:03.215Z,3.84
2023-03-29T02:15:13.720Z,3.86
2023-03-29T02:15:24.296Z,3.83
2023-03-29T02:15:34.765Z,3.84
2023-03-29T02:15:45.289Z,3.86
2023-03-29T02:15:55.795Z,3.86
2023-03-29T02:16:06.274Z,3.84
2023-03-29T02:16:16.989Z,3.84
2023-03-29T02:16:27.272Z,3.84
2023-03-29T02:16:37.775Z,3.86
2023-03-29T02:16:48.282Z,3.84
2023-03-29T02:16:58.788Z,3.84
2023-03-29T02:17:09.307Z,3.86
2023-03-29T02:17:19.829Z,3.84
2023-03-29T02:17:30.332Z,3.84
2023-03-29T02:17:40.857Z,3.86
2023-03-29T02:17:51.435Z,3.86
2023-03-29T02:18:01.871Z,3.86
2023-03-29T02:18:12.350Z,3.84
2023-03-29T02:18:22.841Z,3.86
2023-03-29T02:18:33.377Z,3.86
2023-03-29T02:18:43.852Z,3.86
2023-03-29T02:18:54.375Z,3.86
2023-03-29T02:19:04.890Z,3.86
2023-03-29T02:19:15.390Z,3.86
2023-03-29T02:19:25.887Z,3.84
2023-03-29T02:19:36.385Z,3.87
2023-03-29T02:19:46.893Z,3.86